Time;durP1;ratioP1;P1;durP2;ratioP2;P2;SDS_P1;SDS_P2;PMS_P1;PMS_P2;Temp;Humidity;BMP_temperature;BMP_pressure;BME280_temperature;BME280_humidity;BME280_pressure;Samples;Min_cycle;Max_cycle;Signal;HPM_P1;HPM_P2
2023/07/16 00:01:01;;;;;;;;;8.75;7.75;29.20;51.60;;;;;;111288;1240;44914;-68
2023/07/16 00:03:48;;;;;;;;;9.00;7.50;29.20;51.60;;;;;;111305;1239;51175;-66
2023/07/16 00:06:15;;;;;;;;;6.50;6.00;29.20;51.80;;;;;;111296;1243;49226;-66
2023/07/16 00:08:41;;;;;;;;;8.00;7.00;29.20;51.50;;;;;;111270;1238;54238;-66
2023/07/16 00:11:08;;;;;;;;;6.75;6.00;29.20;51.70;;;;;;111299;1242;44271;-66
2023/07/16 00:13:36;;;;;;;;;9.00;7.00;29.20;51.50;;;;;;111153;1244;49682;-68
2023/07/16 00:16:03;;;;;;;;;7.25;6.50;29.20;51.50;;;;;;111291;1243;49954;-67
2023/07/16 00:18:30;;;;;;;;;7.33;6.33;29.10;51.50;;;;;;111236;1239;53861;-67
2023/07/16 00:20:58;;;;;;;;;10.00;9.00;29.10;51.70;;;;;;111287;1240;45031;-65
2023/07/16 00:23:24;;;;;;;;;8.00;7.00;29.20;52.10;;;;;;111339;1243;49409;-68
2023/07/16 00:25:52;;;;;;;;;7.50;6.50;29.10;51.50;;;;;;111225;1243;48995;-67
2023/07/16 00:28:18;;;;;;;;;7.33;7.00;29.10;51.50;;;;;;111258;1246;53506;-65
2023/07/16 00:30:46;;;;;;;;;8.00;7.00;29.10;51.70;;;;;;111215;1239;44836;-68
2023/07/16 00:33:12;;;;;;;;;7.00;6.75;29.10;51.50;;;;;;111307;1238;48769;-66
2023/07/16 00:35:49;;;;;;;;;7.00;6.00;29.10;51.60;;;;;;111337;1243;49251;-66
2023/07/16 00:38:19;;;;;;;;;9.00;8.00;29.10;51.60;;;;;;111186;1239;54130;-67
2023/07/16 00:40:47;;;;;;;;;7.00;6.25;29.10;51.60;;;;;;111249;1243;45037;-67
2023/07/16 00:43:14;;;;;;;;;8.00;6.00;29.10;51.50;;;;;;111290;1243;48704;-68
2023/07/16 00:45:42;;;;;;;;;8.00;7.00;29.10;51.60;;;;;;111295;1243;49113;-67
2023/07/16 00:48:09;;;;;;;;;8.75;7.50;29.10;52.00;;;;;;111236;1244;54535;-67
2023/07/16 00:50:39;;;;;;;;;8.00;7.00;29.10;52.10;;;;;;111302;1243;44189;-67
2023/07/16 00:53:07;;;;;;;;;7.50;7.00;29.00;51.70;;;;;;111308;1244;49224;-67
2023/07/16 00:55:36;;;;;;;;;7.00;6.00;29.00;51.60;;;;;;111378;1244;49693;-67
2023/07/16 00:58:05;;;;;;;;;7.00;6.00;29.00;51.50;;;;;;111248;1238;54629;-67
2023/07/16 01:00:34;;;;;;;;;8.25;7.25;29.00;51.50;;;;;;111291;1243;44881;-68
2023/07/16 01:03:07;;;;;;;;;8.00;7.25;29.10;51.80;;;;;;111421;1242;50104;-68
2023/07/16 01:05:56;;;;;;;;;8.00;7.00;29.00;51.50;;;;;;111338;1243;48753;-67
2023/07/16 01:08:35;;;;;;;;;8.00;7.25;29.00;51.50;;;;;;111270;1239;54032;-68
2023/07/16 01:11:03;;;;;;;;;7.67;6.67;29.00;51.50;;;;;;111238;1243;44715;-67
2023/07/16 01:13:29;;;;;;;;;8.00;7.00;29.00;51.50;;;;;;111129;1244;49256;-67
2023/07/16 01:15:57;;;;;;;;;8.00;6.25;29.00;51.70;;;;;;111300;1238;50616;-68
2023/07/16 01:18:23;;;;;;;;;8.00;7.25;29.00;51.50;;;;;;111279;1241;54077;-68
2023/07/16 01:20:50;;;;;;;;;9.00;8.00;29.00;51.50;;;;;;111317;1239;44158;-66
2023/07/16 01:24:11;;;;;;;;;7.50;7.00;29.00;51.50;;;;;;111258;1243;49418;-67
2023/07/16 01:27:03;;;;;;;;;7.00;6.00;29.00;51.50;;;;;;110547;1251;49434;-66
2023/07/16 01:29:40;;;;;;;;;8.00;7.00;29.00;51.50;;;;;;111364;1243;54418;-67
2023/07/16 01:32:08;;;;;;;;;8.00;7.00;29.00;51.50;;;;;;111172;1244;44351;-66
2023/07/16 01:34:36;;;;;;;;;8.00;6.00;29.00;51.50;;;;;;111261;1241;49280;-67
2023/07/16 01:37:04;;;;;;;;;8.00;8.00;28.90;51.50;;;;;;111210;1244;49154;-66
2023/07/16 01:39:34;;;;;;;;;8.25;7.50;28.90;51.50;;;;;;111258;1241;53408;-66
2023/07/16 01:42:02;;;;;;;;;7.25;6.75;28.90;51.40;;;;;;111231;1243;44925;-66
2023/07/16 01:44:29;;;;;;;;;8.25;6.50;28.90;51.50;;;;;;111265;1239;48369;-66
2023/07/16 01:47:13;;;;;;;;;7.25;7.00;29.00;51.60;;;;;;111278;1243;49257;-66
2023/07/16 01:49:41;;;;;;;;;8.00;7.25;28.90;51.50;;;;;;111068;1240;53777;-66
2023/07/16 01:52:09;;;;;;;;;8.00;7.00;28.90;51.70;;;;;;111251;1240;45945;-67
2023/07/16 01:54:36;;;;;;;;;8.00;7.00;28.90;51.50;;;;;;111262;1244;49378;-66
2023/07/16 01:57:04;;;;;;;;;9.00;7.00;28.90;51.50;;;;;;111235;1240;48975;-66
2023/07/16 01:59:31;;;;;;;;;9.00;8.25;28.90;51.50;;;;;;111210;1240;53613;-67
2023/07/16 02:01:58;;;;;;;;;7.00;6.00;28.90;51.70;;;;;;111342;1239;45561;-67
2023/07/16 02:04:25;;;;;;;;;8.67;8.00;28.90;51.50;;;;;;111242;1238;49508;-67
2023/07/16 02:06:52;;;;;;;;;7.67;7.00;28.90;51.50;;;;;;111263;1243;49715;-67
2023/07/16 02:09:19;;;;;;;;;8.00;7.00;28.90;51.50;;;;;;111234;1241;54715;-67
2023/07/16 02:11:47;;;;;;;;;7.33;6.67;28.90;51.50;;;;;;111242;1245;44836;-66
2023/07/16 02:14:15;;;;;;;;;8.25;8.00;28.90;51.60;;;;;;111305;1240;49083;-67
2023/07/16 02:16:43;;;;;;;;;9.75;8.25;28.80;51.50;;;;;;111243;1240;48971;-66
2023/07/16 02:19:10;;;;;;;;;7.00;6.00;28.80;51.70;;;;;;111211;1240;54091;-67
2023/07/16 02:21:37;;;;;;;;;8.00;7.00;28.80;51.50;;;;;;111266;1238;44320;-65
2023/07/16 02:24:04;;;;;;;;;8.00;8.00;28.80;51.50;;;;;;111279;1240;49278;-67
2023/07/16 02:26:31;;;;;;;;;7.75;6.75;28.80;51.50;;;;;;111252;1243;49446;-67
2023/07/16 02:28:59;;;;;;;;;8.25;8.00;28.80;51.60;;;;;;111240;1238;53347;-67
2023/07/16 02:31:26;;;;;;;;;8.33;8.00;28.80;51.10;;;;;;111274;1243;44788;-66
2023/07/16 02:33:53;;;;;;;;;8.33;7.33;28.80;51.50;;;;;;111237;1240;49449;-67
2023/07/16 02:36:20;;;;;;;;;7.00;6.00;28.70;51.50;;;;;;111262;1240;48914;-66
2023/07/16 02:38:47;;;;;;;;;7.25;6.25;28.70;51.60;;;;;;111274;1238;55126;-66
2023/07/16 02:41:14;;;;;;;;;10.00;9.00;28.70;51.60;;;;;;111307;1243;45955;-66
2023/07/16 02:43:41;;;;;;;;;7.00;6.00;28.70;51.60;;;;;;111282;1240;49644;-66
2023/07/16 02:46:08;;;;;;;;;8.67;7.67;28.70;51.60;;;;;;111281;1243;50413;-66
2023/07/16 02:48:35;;;;;;;;;8.00;7.33;28.70;51.60;;;;;;111272;1243;53194;-67
2023/07/16 02:51:02;;;;;;;;;8.00;7.67;28.70;51.60;;;;;;111301;1243;44500;-66
2023/07/16 02:53:28;;;;;;;;;6.00;6.00;28.70;51.60;;;;;;111250;1244;49186;-67
2023/07/16 02:55:55;;;;;;;;;7.00;6.00;28.70;51.60;;;;;;111292;1238;50498;-67
2023/07/16 02:58:22;;;;;;;;;9.75;9.00;28.70;51.60;;;;;;111210;1243;54238;-67
2023/07/16 03:00:49;;;;;;;;;8.25;8.00;28.70;51.60;;;;;;111320;1244;44438;-67
2023/07/16 03:03:16;;;;;;;;;7.67;7.33;28.70;51.60;;;;;;111256;1245;48319;-66
2023/07/16 03:05:43;;;;;;;;;7.75;7.00;28.60;51.80;;;;;;111277;1243;49892;-66
2023/07/16 03:08:10;;;;;;;;;8.00;8.00;28.60;51.60;;;;;;111222;1239;53518;-66
2023/07/16 03:10:37;;;;;;;;;9.00;9.00;28.60;52.20;;;;;;111251;1240;45400;-65
2023/07/16 03:13:04;;;;;;;;;8.00;7.00;28.60;51.50;;;;;;111248;1243;50376;-66
2023/07/16 03:15:31;;;;;;;;;8.00;7.00;28.60;51.60;;;;;;111267;1240;50049;-66
2023/07/16 03:17:58;;;;;;;;;8.00;7.25;28.60;51.60;;;;;;111217;1244;54445;-67
2023/07/16 03:20:25;;;;;;;;;8.67;7.00;28.60;51.50;;;;;;111223;1240;45047;-66
2023/07/16 03:22:52;;;;;;;;;7.67;7.67;28.60;51.60;;;;;;111262;1238;49044;-65
2023/07/16 03:25:19;;;;;;;;;7.00;6.25;28.60;51.60;;;;;;111208;1243;49612;-66
2023/07/16 03:27:46;;;;;;;;;9.75;8.00;28.60;51.60;;;;;;111268;1239;54244;-67
2023/07/16 03:30:13;;;;;;;;;7.75;7.25;28.60;51.60;;;;;;111269;1239;44505;-67
2023/07/16 03:32:40;;;;;;;;;7.25;6.25;28.60;51.10;;;;;;111220;1243;48870;-66
2023/07/16 03:35:07;;;;;;;;;8.00;7.75;28.60;51.60;;;;;;111277;1243;48590;-67
2023/07/16 03:37:34;;;;;;;;;7.00;6.25;28.60;51.60;;;;;;111224;1243;53323;-66
2023/07/16 03:40:25;;;;;;;;;6.75;6.00;28.60;51.70;;;;;;111201;1244;44335;-68
2023/07/16 03:42:52;;;;;;;;;8.00;7.33;28.60;51.50;;;;;;111270;1240;49287;-66
2023/07/16 03:45:19;;;;;;;;;8.33;7.67;28.60;51.50;;;;;;111297;1238;49516;-67
2023/07/16 03:47:46;;;;;;;;;8.00;7.00;28.60;51.50;;;;;;111220;1239;54165;-68
2023/07/16 03:50:13;;;;;;;;;8.00;6.33;28.60;51.40;;;;;;111274;1243;44226;-66
2023/07/16 03:52:40;;;;;;;;;8.00;6.00;28.60;51.50;;;;;;111246;1240;49105;-66
2023/07/16 03:55:07;;;;;;;;;9.67;8.00;28.60;51.50;;;;;;111287;1243;49249;-66
2023/07/16 03:57:35;;;;;;;;;6.25;6.25;28.50;51.70;;;;;;111261;1241;55167;-67
2023/07/16 04:00:09;;;;;;;;;7.67;7.00;28.50;51.50;;;;;;111275;1238;44634;-65
2023/07/16 04:02:36;;;;;;;;;8.67;7.67;28.50;51.50;;;;;;111298;1244;49836;-67
2023/07/16 04:05:04;;;;;;;;;9.00;8.00;28.50;51.60;;;;;;111335;1239;48773;-67
2023/07/16 04:07:31;;;;;;;;;8.00;7.25;28.50;51.80;;;;;;111289;1243;53514;-67
2023/07/16 04:09:58;;;;;;;;;8.33;7.33;28.50;51.60;;;;;;111325;1243;45171;-67
2023/07/16 04:12:25;;;;;;;;;9.25;8.25;28.50;51.60;;;;;;111272;1243;49485;-68
2023/07/16 04:14:57;;;;;;;;;8.67;8.00;28.50;51.50;;;;;;111289;1243;48942;-66
2023/07/16 04:17:25;;;;;;;;;9.25;8.25;28.50;51.60;;;;;;111258;1239;53360;-66
2023/07/16 04:19:52;;;;;;;;;8.75;7.75;28.50;51.50;;;;;;111290;1243;44352;-67
2023/07/16 04:22:19;;;;;;;;;9.00;8.00;28.50;51.70;;;;;;111264;1244;48719;-67
2023/07/16 04:24:46;;;;;;;;;7.25;6.25;28.50;51.50;;;;;;111225;1240;49720;-67
2023/07/16 04:27:13;;;;;;;;;8.33;8.00;28.50;51.70;;;;;;111148;1241;53421;-66
2023/07/16 04:29:40;;;;;;;;;8.25;7.75;28.50;51.50;;;;;;111283;1244;44884;-66
2023/07/16 04:32:07;;;;;;;;;8.25;8.00;28.50;51.60;;;;;;111288;1240;48508;-66
2023/07/16 04:34:34;;;;;;;;;10.33;8.67;28.50;51.50;;;;;;111242;1245;48805;-68
2023/07/16 04:37:01;;;;;;;;;8.75;7.75;28.40;51.50;;;;;;111254;1243;54561;-68
2023/07/16 04:39:28;;;;;;;;;7.67;7.00;28.50;51.60;;;;;;111266;1243;44511;-67
2023/07/16 04:41:54;;;;;;;;;9.50;8.00;28.40;51.50;;;;;;111271;1240;49008;-66
2023/07/16 04:44:22;;;;;;;;;8.00;8.00;28.40;51.70;;;;;;111354;1243;49767;-66
2023/07/16 04:46:49;;;;;;;;;8.00;7.00;28.40;51.60;;;;;;111260;1238;54267;-67
2023/07/16 04:49:16;;;;;;;;;7.75;7.25;28.40;51.60;;;;;;111233;1243;44505;-67
2023/07/16 04:51:43;;;;;;;;;8.00;7.00;28.40;51.60;;;;;;111259;1240;48403;-67
2023/07/16 04:54:10;;;;;;;;;9.33;7.67;28.40;51.90;;;;;;111278;1240;49104;-66
2023/07/16 04:56:37;;;;;;;;;6.25;5.25;28.40;51.70;;;;;;110765;1240;615889;-68
2023/07/16 04:59:03;;;;;;;;;11.00;8.00;28.30;51.80;;;;;;111261;1239;45711;-67
2023/07/16 05:01:30;;;;;;;;;8.25;7.25;28.30;51.70;;;;;;111275;1240;50329;-67
2023/07/16 05:03:57;;;;;;;;;7.67;7.33;28.30;51.70;;;;;;111298;1240;49276;-67
2023/07/16 05:06:24;;;;;;;;;8.00;7.00;28.30;51.90;;;;;;111284;1244;54878;-67
2023/07/16 05:08:51;;;;;;;;;8.00;7.25;28.40;51.70;;;;;;111354;1240;45374;-67
2023/07/16 05:11:19;;;;;;;;;8.33;7.33;28.40;51.70;;;;;;111283;1241;48776;-66
2023/07/16 05:13:45;;;;;;;;;10.00;7.00;28.40;51.90;;;;;;111330;1239;48889;-67
2023/07/16 05:16:12;;;;;;;;;9.00;7.33;28.30;51.60;;;;;;111206;1238;54356;-67
2023/07/16 05:18:39;;;;;;;;;7.33;7.33;28.40;51.70;;;;;;111359;1240;44318;-67
2023/07/16 05:21:06;;;;;;;;;8.00;7.75;28.30;51.90;;;;;;111298;1243;49256;-67
2023/07/16 05:23:33;;;;;;;;;8.00;6.33;28.30;51.70;;;;;;111316;1243;49273;-67
2023/07/16 05:26:00;;;;;;;;;9.00;7.00;28.30;51.70;;;;;;111326;1243;53631;-67
2023/07/16 05:28:27;;;;;;;;;8.00;7.25;28.30;51.70;;;;;;111250;1241;44910;-68
2023/07/16 05:31:01;;;;;;;;;8.25;7.25;28.30;51.70;;;;;;111282;1238;48503;-67
2023/07/16 05:33:28;;;;;;;;;9.00;8.00;28.30;51.80;;;;;;111383;1238;48604;-67
2023/07/16 05:35:55;;;;;;;;;8.00;7.00;28.30;51.80;;;;;;111419;1243;53966;-68
2023/07/16 05:38:22;;;;;;;;;9.33;8.33;28.30;52.00;;;;;;111374;1244;45587;-68
2023/07/16 05:40:49;;;;;;;;;7.00;7.00;28.40;51.80;;;;;;111343;1238;48689;-67
2023/07/16 05:43:16;;;;;;;;;8.75;8.00;28.40;51.80;;;;;;111281;1239;49071;-67
2023/07/16 05:45:43;;;;;;;;;8.67;7.00;28.40;51.80;;;;;;111106;1244;53923;-69
2023/07/16 05:48:11;;;;;;;;;8.75;8.25;28.40;51.80;;;;;;111288;1243;44913;-67
2023/07/16 05:50:38;;;;;;;;;8.33;7.33;28.40;51.70;;;;;;111277;1240;49034;-67
2023/07/16 05:53:05;;;;;;;;;7.75;7.75;28.40;52.10;;;;;;111254;1239;48573;-66
2023/07/16 05:55:32;;;;;;;;;9.00;7.25;28.40;51.70;;;;;;111280;1243;54647;-67
2023/07/16 05:57:59;;;;;;;;;7.00;6.50;28.40;51.70;;;;;;111282;1238;44420;-67
2023/07/16 06:00:26;;;;;;;;;7.50;6.75;28.40;51.70;;;;;;111284;1240;48493;-68
2023/07/16 06:02:53;;;;;;;;;8.75;7.00;28.40;51.70;;;;;;111312;1243;49370;-66
2023/07/16 06:05:21;;;;;;;;;8.75;7.75;28.40;51.70;;;;;;111244;1240;54347;-67
2023/07/16 06:07:48;;;;;;;;;8.25;8.25;28.40;51.80;;;;;;111278;1243;45610;-68
2023/07/16 06:10:15;;;;;;;;;8.75;7.75;28.40;51.70;;;;;;111256;1244;49138;-68
2023/07/16 06:12:42;;;;;;;;;7.75;7.00;28.40;51.70;;;;;;111316;1239;48638;-67
2023/07/16 06:15:09;;;;;;;;;8.75;8.25;28.50;51.80;;;;;;111294;1238;54721;-68
2023/07/16 06:17:36;;;;;;;;;7.33;7.33;28.40;51.80;;;;;;111275;1243;45589;-67
2023/07/16 06:20:04;;;;;;;;;8.00;7.25;28.50;51.80;;;;;;111287;1241;49078;-67
2023/07/16 06:22:31;;;;;;;;;7.75;7.00;28.50;51.80;;;;;;111309;1243;48480;-67
2023/07/16 06:24:59;;;;;;;;;8.00;7.00;28.50;51.90;;;;;;111293;1243;54490;-67
2023/07/16 06:27:26;;;;;;;;;9.00;8.75;28.50;51.80;;;;;;111313;1244;44919;-67
2023/07/16 06:29:53;;;;;;;;;8.67;8.00;28.50;52.00;;;;;;111253;1241;48886;-68
2023/07/16 06:32:20;;;;;;;;;8.75;7.75;28.50;52.20;;;;;;111304;1243;49434;-67
2023/07/16 06:34:47;;;;;;;;;9.50;8.50;28.50;52.10;;;;;;111315;1243;53295;-66
2023/07/16 06:37:14;;;;;;;;;10.00;8.25;28.50;51.90;;;;;;111252;1238;44664;-70
2023/07/16 06:39:41;;;;;;;;;8.75;7.75;28.50;52.30;;;;;;111247;1243;49352;-67
2023/07/16 06:42:08;;;;;;;;;8.00;7.00;28.50;51.90;;;;;;111274;1238;49214;-67
2023/07/16 06:44:35;;;;;;;;;10.00;7.75;28.50;51.90;;;;;;111283;1239;54577;-67
2023/07/16 06:47:02;;;;;;;;;9.75;8.75;28.50;52.00;;;;;;111253;1243;44313;-67
2023/07/16 06:49:30;;;;;;;;;8.00;8.00;28.50;52.00;;;;;;111221;1240;49934;-67
2023/07/16 06:52:02;;;;;;;;;9.00;7.00;28.50;52.00;;;;;;111282;1243;49673;-67
2023/07/16 06:54:29;;;;;;;;;8.67;8.00;28.50;52.00;;;;;;111309;1238;55299;-69
2023/07/16 06:56:56;;;;;;;;;9.00;7.00;28.50;52.20;;;;;;111360;1238;45543;-67
2023/07/16 06:59:23;;;;;;;;;8.25;7.00;28.60;52.10;;;;;;111182;1240;49362;-67
2023/07/16 07:01:49;;;;;;;;;7.67;7.67;28.60;52.00;;;;;;111336;1240;49175;-67
2023/07/16 07:04:17;;;;;;;;;9.00;8.25;28.60;52.10;;;;;;111272;1244;53658;-66
2023/07/16 07:06:44;;;;;;;;;7.00;7.00;28.60;52.10;;;;;;111246;1239;44894;-67
2023/07/16 07:09:11;;;;;;;;;8.00;7.00;28.60;52.10;;;;;;111322;1243;48883;-68
2023/07/16 07:11:38;;;;;;;;;7.75;7.50;28.60;52.10;;;;;;111234;1239;49238;-67
2023/07/16 07:14:05;;;;;;;;;8.00;7.25;28.60;52.10;;;;;;111254;1243;53954;-68
2023/07/16 07:16:32;;;;;;;;;8.25;7.00;28.60;52.30;;;;;;111321;1243;45521;-68
2023/07/16 07:18:59;;;;;;;;;8.00;7.50;28.60;52.20;;;;;;111279;1243;48482;-67
2023/07/16 07:21:26;;;;;;;;;9.00;9.00;28.60;52.10;;;;;;111269;1244;48885;-68
2023/07/16 07:23:53;;;;;;;;;9.75;8.25;28.70;52.40;;;;;;111295;1241;54356;-68
2023/07/16 07:26:20;;;;;;;;;7.00;6.50;28.70;52.20;;;;;;111316;1244;45180;-67
2023/07/16 07:28:47;;;;;;;;;8.75;8.00;28.70;52.20;;;;;;111277;1242;49302;-67
2023/07/16 07:31:14;;;;;;;;;7.67;6.67;28.70;52.20;;;;;;111274;1243;49608;-68
2023/07/16 07:33:41;;;;;;;;;9.00;8.00;28.70;52.20;;;;;;111331;1238;54863;-66
2023/07/16 07:36:08;;;;;;;;;8.00;7.00;28.70;52.20;;;;;;111303;1244;44663;-68
2023/07/16 07:38:35;;;;;;;;;7.25;7.00;28.80;52.30;;;;;;111268;1240;48869;-67
2023/07/16 07:41:02;;;;;;;;;8.00;7.00;28.80;52.30;;;;;;111274;1240;49790;-66
2023/07/16 07:43:28;;;;;;;;;7.00;7.00;28.80;52.50;;;;;;111257;1240;53491;-65
2023/07/16 07:45:56;;;;;;;;;7.25;6.50;28.80;52.30;;;;;;111314;1240;45237;-66
2023/07/16 07:48:23;;;;;;;;;8.00;6.25;28.90;52.30;;;;;;111263;1243;48725;-67
2023/07/16 07:50:50;;;;;;;;;6.67;6.00;28.90;52.30;;;;;;111254;1238;48868;-67
2023/07/16 07:53:19;;;;;;;;;7.00;6.25;28.90;52.30;;;;;;111298;1244;53663;-67
2023/07/16 07:55:46;;;;;;;;;7.50;6.50;28.90;52.30;;;;;;111209;1240;44129;-67
2023/07/16 07:58:13;;;;;;;;;9.00;8.00;29.00;52.60;;;;;;111243;1242;48942;-69
2023/07/16 08:00:40;;;;;;;;;9.00;7.00;29.00;52.30;;;;;;111270;1239;49275;-67
2023/07/16 08:03:07;;;;;;;;;7.50;7.00;29.00;52.30;;;;;;111289;1244;54210;-68
2023/07/16 08:05:34;;;;;;;;;7.25;6.75;29.00;52.50;;;;;;111293;1238;45124;-67
2023/07/16 08:08:02;;;;;;;;;8.25;7.25;29.10;52.40;;;;;;111319;1243;49319;-67
2023/07/16 08:10:29;;;;;;;;;8.25;8.00;29.10;52.30;;;;;;111252;1238;50517;-67
2023/07/16 08:12:56;;;;;;;;;9.33;7.00;29.10;52.30;;;;;;111236;1240;53569;-66
2023/07/16 08:15:23;;;;;;;;;6.25;6.25;29.10;52.50;;;;;;111300;1238;44223;-67
2023/07/16 08:17:50;;;;;;;;;9.00;6.75;29.20;52.40;;;;;;111283;1238;48891;-67
2023/07/16 08:20:17;;;;;;;;;8.75;6.75;29.20;52.30;;;;;;111306;1243;48568;-69
2023/07/16 08:22:44;;;;;;;;;9.00;8.00;29.30;52.40;;;;;;111269;1240;53879;-67
2023/07/16 08:25:11;;;;;;;;;8.00;7.00;29.30;52.40;;;;;;111320;1241;44801;-67
2023/07/16 08:27:38;;;;;;;;;8.75;7.75;29.30;52.30;;;;;;111291;1244;49788;-67
2023/07/16 08:30:06;;;;;;;;;9.00;8.00;29.30;52.30;;;;;;111286;1238;49219;-67
2023/07/16 08:32:33;;;;;;;;;7.00;7.00;29.40;52.50;;;;;;111273;1243;54176;-67
2023/07/16 08:35:00;;;;;;;;;7.75;7.00;29.40;52.10;;;;;;111361;1238;44952;-66
2023/07/16 08:37:26;;;;;;;;;8.00;7.00;29.40;52.30;;;;;;111300;1240;49765;-68
2023/07/16 08:39:53;;;;;;;;;10.00;8.00;29.50;52.30;;;;;;111318;1240;50539;-67
2023/07/16 08:42:20;;;;;;;;;7.50;6.75;29.50;52.30;;;;;;111262;1238;53749;-68
2023/07/16 08:44:50;;;;;;;;;7.25;6.25;29.60;52.30;;;;;;111297;1240;45298;-67
2023/07/16 08:47:18;;;;;;;;;7.00;6.33;29.60;52.30;;;;;;111271;1243;49241;-67
2023/07/16 08:49:54;;;;;;;;;7.00;6.00;29.60;52.30;;;;;;111222;1244;49212;-67
2023/07/16 08:52:22;;;;;;;;;8.50;7.75;29.60;52.20;;;;;;111275;1241;54684;-67
2023/07/16 08:54:48;;;;;;;;;8.00;7.25;29.70;52.30;;;;;;111341;1244;44603;-67
2023/07/16 08:57:16;;;;;;;;;9.75;7.00;29.70;52.20;;;;;;111279;1238;48880;-66
2023/07/16 08:59:44;;;;;;;;;8.25;7.50;29.80;52.20;;;;;;111230;1239;49855;-68
2023/07/16 09:02:12;;;;;;;;;6.25;6.00;29.80;52.20;;;;;;111142;1241;53999;-67
2023/07/16 09:04:39;;;;;;;;;7.50;7.25;29.80;52.20;;;;;;111296;1243;45319;-69
2023/07/16 09:07:06;;;;;;;;;7.00;6.75;29.90;52.20;;;;;;111284;1244;49272;-68
2023/07/16 09:09:33;;;;;;;;;6.00;5.00;29.90;51.70;;;;;;111298;1243;49485;-67
2023/07/16 09:12:00;;;;;;;;;7.00;7.00;29.90;52.10;;;;;;111317;1243;53317;-68
2023/07/16 09:14:27;;;;;;;;;9.00;7.00;30.00;52.20;;;;;;111291;1240;44486;-68
2023/07/16 09:16:54;;;;;;;;;6.00;6.00;30.00;52.20;;;;;;111281;1238;49062;-67
2023/07/16 09:19:22;;;;;;;;;8.00;7.00;30.10;51.70;;;;;;111223;1240;49362;-67
2023/07/16 09:21:49;;;;;;;;;8.00;7.00;30.10;52.10;;;;;;111291;1243;53307;-67
2023/07/16 09:24:17;;;;;;;;;7.00;6.00;30.20;52.20;;;;;;111288;1239;44899;-66
2023/07/16 09:27:03;;;;;;;;;8.00;7.00;30.20;51.70;;;;;;111331;1244;48616;-69
2023/07/16 09:29:30;;;;;;;;;6.00;5.67;30.20;52.10;;;;;;111276;1243;48575;-67
2023/07/16 09:32:02;;;;;;;;;7.25;6.25;30.20;52.00;;;;;;111245;1243;53236;-67
2023/07/16 09:34:30;;;;;;;;;7.00;7.00;30.30;52.00;;;;;;111299;1238;44992;-67
2023/07/16 09:37:01;;;;;;;;;7.00;6.00;30.30;52.00;;;;;;111322;1240;49378;-66
2023/07/16 09:39:28;;;;;;;;;7.67;7.00;30.40;52.00;;;;;;111284;1240;49833;-68
2023/07/16 09:41:57;;;;;;;;;8.00;7.00;30.40;52.00;;;;;;111265;1244;54613;-67
2023/07/16 09:44:25;;;;;;;;;6.25;5.25;30.40;51.90;;;;;;111182;1243;44569;-68
2023/07/16 09:46:52;;;;;;;;;6.50;5.00;30.50;52.00;;;;;;111286;1243;48916;-68
2023/07/16 09:49:19;;;;;;;;;7.00;6.00;30.50;51.90;;;;;;111363;1243;49853;-67
2023/07/16 09:51:48;;;;;;;;;7.00;6.75;30.50;51.90;;;;;;111225;1243;55132;-67
2023/07/16 09:54:15;;;;;;;;;7.33;6.33;30.60;51.90;;;;;;111293;1239;44934;-68
2023/07/16 09:56:50;;;;;;;;;7.25;7.00;30.60;51.90;;;;;;111464;1243;49291;-68
2023/07/16 09:59:20;;;;;;;;;6.50;6.00;30.60;52.40;;;;;;111295;1243;48829;-68
2023/07/16 10:01:47;;;;;;;;;6.00;5.25;30.70;51.90;;;;;;111278;1242;53653;-67
2023/07/16 10:04:19;;;;;;;;;8.00;7.00;30.70;51.80;;;;;;111268;1238;45070;-67
2023/07/16 10:06:53;;;;;;;;;9.00;7.00;30.70;51.80;;;;;;111295;1242;48369;-66
2023/07/16 10:09:39;;;;;;;;;6.00;6.00;30.80;52.00;;;;;;111298;1242;49011;-66
2023/07/16 10:12:14;;;;;;;;;6.00;5.00;30.80;51.80;;;;;;111220;1243;53851;-67
2023/07/16 10:14:46;;;;;;;;;6.25;5.25;30.80;51.90;;;;;;111359;1243;45391;-67
2023/07/16 10:17:23;;;;;;;;;7.67;7.33;30.90;51.80;;;;;;111265;1240;49515;-68
2023/07/16 10:19:54;;;;;;;;;7.00;6.75;30.90;51.80;;;;;;111236;1238;49437;-67
2023/07/16 10:22:32;;;;;;;;;6.25;5.25;31.00;51.80;;;;;;111218;1239;53960;-68
2023/07/16 10:25:00;;;;;;;;;7.00;6.00;31.00;51.70;;;;;;111234;1241;44546;-67
2023/07/16 10:27:36;;;;;;;;;7.00;6.50;31.00;51.70;;;;;;111284;1239;49015;-68
2023/07/16 10:30:05;;;;;;;;;6.00;5.50;31.10;51.70;;;;;;111305;1239;48930;-68
2023/07/16 10:32:33;;;;;;;;;6.25;6.00;31.10;51.60;;;;;;111292;1245;54278;-67
2023/07/16 10:35:01;;;;;;;;;7.67;6.67;31.20;51.70;;;;;;111301;1243;44947;-66
2023/07/16 10:37:28;;;;;;;;;7.25;6.00;31.10;51.50;;;;;;111243;1243;50165;-68
2023/07/16 10:39:57;;;;;;;;;9.00;7.00;31.20;51.60;;;;;;111338;1239;48419;-67
2023/07/16 10:42:27;;;;;;;;;6.00;5.00;31.20;51.60;;;;;;111318;1243;55029;-67
2023/07/16 10:44:58;;;;;;;;;6.25;5.75;31.20;51.50;;;;;;111190;1244;44806;-67
2023/07/16 10:47:33;;;;;;;;;7.00;7.00;31.30;51.80;;;;;;111329;1243;49119;-68
2023/07/16 10:50:03;;;;;;;;;7.00;6.50;31.20;51.50;;;;;;111227;1240;48765;-66
2023/07/16 10:52:30;;;;;;;;;6.25;5.25;31.30;51.50;;;;;;111287;1243;53490;-67
2023/07/16 10:54:58;;;;;;;;;7.50;6.50;31.30;51.70;;;;;;111359;1244;45101;-68
2023/07/16 10:57:25;;;;;;;;;7.75;6.00;31.30;51.40;;;;;;111200;1240;48580;-67
2023/07/16 10:59:54;;;;;;;;;8.00;6.75;31.40;51.20;;;;;;111248;1240;50083;-68
2023/07/16 11:02:23;;;;;;;;;6.00;5.00;31.40;51.40;;;;;;111298;1243;54074;-67
2023/07/16 11:04:54;;;;;;;;;7.00;6.00;31.40;51.40;;;;;;111313;1241;44841;-68
2023/07/16 11:07:21;;;;;;;;;7.00;6.00;31.40;51.40;;;;;;111261;1243;49996;-67
2023/07/16 11:09:50;;;;;;;;;6.00;6.00;31.40;51.30;;;;;;111252;1239;49267;-70
2023/07/16 11:12:20;;;;;;;;;7.25;6.25;31.50;51.40;;;;;;111230;1243;53232;-69
2023/07/16 11:14:53;;;;;;;;;7.00;6.00;31.50;51.40;;;;;;111286;1239;44862;-66
2023/07/16 11:17:22;;;;;;;;;6.00;6.00;31.50;51.40;;;;;;111286;1238;49793;-67
2023/07/16 11:19:51;;;;;;;;;7.00;6.00;31.50;51.40;;;;;;111336;1240;49318;-69
2023/07/16 11:22:18;;;;;;;;;6.00;5.00;31.50;51.30;;;;;;111262;1243;53716;-68
2023/07/16 11:24:50;;;;;;;;;8.50;7.50;31.50;51.30;;;;;;111282;1243;44887;-68
2023/07/16 11:27:20;;;;;;;;;8.00;7.00;31.50;51.30;;;;;;111229;1240;48561;-66
2023/07/16 11:29:52;;;;;;;;;6.00;5.00;31.60;51.30;;;;;;111342;1238;49385;-67
2023/07/16 11:32:34;;;;;;;;;7.25;7.00;31.60;51.30;;;;;;111229;1244;53529;-67
2023/07/16 11:35:06;;;;;;;;;7.00;6.33;31.60;51.20;;;;;;111339;1240;45695;-68
2023/07/16 11:37:35;;;;;;;;;5.25;5.00;31.60;51.20;;;;;;111353;1240;49803;-67
2023/07/16 11:40:08;;;;;;;;;7.00;6.00;31.70;51.20;;;;;;111326;1243;48513;-67
2023/07/16 11:42:39;;;;;;;;;7.00;7.00;31.70;50.80;;;;;;111360;1243;53441;-66
2023/07/16 11:45:18;;;;;;;;;6.00;6.00;31.70;51.60;;;;;;111365;1243;45417;-67
2023/07/16 11:47:46;;;;;;;;;6.00;6.00;31.70;51.20;;;;;;111298;1244;49269;-67
2023/07/16 11:50:13;;;;;;;;;6.50;6.00;31.70;51.10;;;;;;111322;1243;48369;-68
2023/07/16 11:52:41;;;;;;;;;6.75;6.00;31.70;51.30;;;;;;111257;1239;53406;-68
2023/07/16 11:55:08;;;;;;;;;6.00;6.00;31.70;51.10;;;;;;111317;1240;44574;-67
2023/07/16 11:57:35;;;;;;;;;8.00;7.00;31.70;51.10;;;;;;111407;1241;49303;-67
2023/07/16 12:00:04;;;;;;;;;7.00;6.25;31.70;51.00;;;;;;111284;1240;48658;-66
2023/07/16 12:02:31;;;;;;;;;7.25;6.25;31.80;51.30;;;;;;111308;1243;54305;-67
2023/07/16 12:04:58;;;;;;;;;6.75;6.00;31.80;51.10;;;;;;111270;1240;45461;-65
2023/07/16 12:07:36;;;;;;;;;6.33;5.33;31.80;51.30;;;;;;111194;1243;49882;-67
2023/07/16 12:10:06;;;;;;;;;7.50;6.25;31.80;51.10;;;;;;111304;1241;48713;-67
2023/07/16 12:12:37;;;;;;;;;7.00;6.00;31.80;51.20;;;;;;111375;1242;54266;-67
2023/07/16 12:15:06;;;;;;;;;6.50;6.50;31.80;51.00;;;;;;111346;1243;45489;-67
2023/07/16 12:17:33;;;;;;;;;6.50;6.00;31.80;51.00;;;;;;111302;1238;48384;-67
2023/07/16 12:20:03;;;;;;;;;7.00;6.67;31.80;51.20;;;;;;111300;1243;49175;-69
2023/07/16 12:22:30;;;;;;;;;5.25;5.25;31.80;51.00;;;;;;111357;1243;54078;-67
2023/07/16 12:24:57;;;;;;;;;8.00;7.00;31.80;51.00;;;;;;111193;1238;45421;-67
2023/07/16 12:27:24;;;;;;;;;6.00;6.00;31.80;51.00;;;;;;111207;1241;49084;-66
2023/07/16 12:29:52;;;;;;;;;7.25;5.50;31.80;50.90;;;;;;111249;1244;48585;-67
2023/07/16 12:32:20;;;;;;;;;5.25;5.25;31.80;51.60;;;;;;111326;1243;54213;-67
2023/07/16 12:34:47;;;;;;;;;7.75;7.00;31.80;51.00;;;;;;111291;1238;44882;-67
2023/07/16 12:37:14;;;;;;;;;7.25;6.25;31.80;51.00;;;;;;111257;1244;49127;-67
2023/07/16 12:39:41;;;;;;;;;7.00;6.50;31.80;51.00;;;;;;111249;1238;49461;-68
2023/07/16 12:42:08;;;;;;;;;7.00;6.00;31.80;51.00;;;;;;111197;1243;53653;-68